Etusivu
METAR-TAF:

METAR-TAF

Lentoasemat :

Sandefjordin lentoasema

Sandefjord, Norja

Leveyspiiri: 59-12N, Pituuspiiri: 010-16E, korkeus merenpinnasta: 8 m

Tämänhetkinen sää

Tämä raportti tehtiin 14 minuuttia sitten, kello 04.50 UTC
Tuuli 3 kn pohjoisesta
Lämpötila 4°C
Kosteus 81%
Ilmanpaine 1022 hPa
Näkyvyys 10 km tai enemmän
ei pilviä alle 1500 m:ssä eikä cumulonimbus-pilviä

METAR: ENTO 230450Z 36003KT CAVOK 04/01 Q1022

Aika: 07:04 (05:04 UTC)

Sääennuste

Ennuste voimassa 23. päivästä klo 00 UTC - 23. päivään klo 24 UTC
Tuuli 5 kn eri suunnista
Näkyvyys 10 km tai enemmän
ei pilviä alle 1500 m:ssä eikä cumulonimbus-pilviä
Tulossa
23. päivästä klo 07 UTC - 23. päivään klo 09 UTC
Tuuli 10 kn koillisesta
Todennäköisyys 40%
23. päivästä klo 11 UTC - 23. päivään klo 15 UTC
Tuuli 8 kn etelästä

TAF: ENTO 2300/2324 VRB05KT CAVOK BECMG 2307/2309 05010KT PROB40 2311/2315 18008KT

Säähavainnot ja -ennusteet yli 4000 lentoasemalta (METAR- ja TAF-raportit).

Käytössä olevat sääasemat on merkitty karttaan keltaisilla ja punaisilla pisteillä.

Aseta hiiri pisteen päälle nähdäksesi sääaseman nimen.

Klikkaa sitten nähdäksesi säähavainnot ja -ennusteet.

Kartan vaihtaminen: klikkaa mustalla rastilla varustettuja vihreitä pisteitä, niin voit zoomata sisään; viivalla varustettua vihreää pistettä, niin voit zoomata ulos tai vihreitä nuolia, niin pääset viereisille kartoille.


METAR-TAF: